Terminal Aerodrome Forecast
Issued by NWS

Home | Current Version | Previous Version | Text Only | Print | Product List | Glossary On
Versions: 1 2 3 4 5 6 7 8 9 10 11 12 13 14 15 16 17 18 19 20
000
FTUS42 KMLB 171900 AAB
TAFSUA
TAF AMD
KSUA 171923Z 1719/1818 06015G20KT P6SM SCT020 BKN030 OVC080
      TEMPO 1719/1722 -SHRA BKN020
     FM180000 08010KT P6SM VCSH SCT020 BKN030
     FM181200 14015KT P6SM VCSH BKN040 OVC070=

USA.gov is the U.S. government's official web portal to all federal, state and local government web resources and services.